Time;durP1;ratioP1;P1;durP2;ratioP2;P2;SDS_P1;SDS_P2;PMS_P1;PMS_P2;Temp;Humidity;BMP_temperature;BMP_pressure;BME280_temperature;BME280_humidity;BME280_pressure;Samples;Min_cycle;Max_cycle;Signal;HPM_P1;HPM_P2
2021/01/19 00:00:15;;;;;;;17.17;11.77;;;5.80;92.90;;;;;;6216210;23;20417;-87
2021/01/19 00:06:23;;;;;;;;;;;;;;;;;;;;;
2021/01/19 00:09:04;;;;;;;17.55;10.95;;;5.80;92.90;;;;;;6193411;23;20099;-89
2021/01/19 00:11:46;;;;;;;;;;;;;;;;;;;;;
2021/01/19 00:14:34;;;;;;;16.92;10.68;;;5.80;92.90;;;;;;6169368;23;20084;-88
2021/01/19 00:17:36;;;;;;;14.63;10.68;;;5.80;92.90;;;;;;6215665;23;19996;-88
2021/01/19 00:23:03;;;;;;;15.98;10.38;;;5.80;92.90;;;;;;6169762;23;20402;-90
2021/01/19 00:26:01;;;;;;;16.45;9.95;;;5.80;92.90;;;;;;6189460;23;20019;-88
2021/01/19 00:28:59;;;;;;;14.13;9.25;;;5.80;92.90;;;;;;6180718;23;20406;-89
2021/01/19 00:31:28;;;;;;;15.40;8.93;;;5.80;92.90;;;;;;6142286;23;20051;-88
2021/01/19 00:34:16;;;;;;;14.13;8.73;;;5.80;92.80;;;;;;6188801;23;20016;-88
2021/01/19 00:37:13;;;;;;;;;;;;;;;;;;;;;
2021/01/19 00:39:41;;;;;;;11.80;7.47;;;5.80;92.80;;;;;;6215848;23;20087;-87
2021/01/19 00:42:37;;;;;;;12.50;7.22;;;5.80;92.80;;;;;;6189164;23;20072;-88
2021/01/19 00:45:06;;;;;;;14.32;7.45;;;5.80;92.80;;;;;;6188396;23;20001;-88
2021/01/19 00:48:10;;;;;;;11.73;6.22;;;5.80;92.70;;;;;;6188739;23;20004;-87
2021/01/19 00:50:40;;;;;;;13.15;6.53;;;5.80;92.70;;;;;;6185881;23;20005;-88
2021/01/19 00:53:36;;;;;;;;;;;;;;;;;;;;;
2021/01/19 00:56:25;;;;;;;8.88;5.65;;;5.80;92.70;;;;;;6215453;23;20072;-88
2021/01/19 00:59:13;;;;;;;9.50;5.22;;;5.80;92.60;;;;;;6168909;23;20008;-88
2021/01/19 01:02:18;;;;;;;10.00;5.30;;;5.80;92.60;;;;;;6168729;23;20091;-88
2021/01/19 01:05:20;;;;;;;9.02;4.82;;;5.80;92.70;;;;;;6189181;23;20277;-88
2021/01/19 01:08:14;;;;;;;;;;;;;;;;;;;;;
2021/01/19 01:10:47;;;;;;;14.00;5.63;;;5.70;92.60;;;;;;6191606;23;20068;-89
2021/01/19 01:13:32;;;;;;;10.55;5.78;;;5.80;92.50;;;;;;6140655;23;20043;-88
2021/01/19 01:16:27;;;;;;;;;;;;;;;;;;;;;
2021/01/19 01:19:04;;;;;;;13.13;4.70;;;5.70;92.50;;;;;;6214679;23;20079;-87
2021/01/19 01:21:36;;;;;;;7.95;4.07;;;5.80;92.50;;;;;;6190033;23;20395;-88
2021/01/19 01:24:17;;;;;;;8.10;3.80;;;5.70;92.50;;;;;;6163669;23;20021;-88
2021/01/19 01:26:48;;;;;;;10.23;4.15;;;5.80;92.50;;;;;;6167434;23;20356;-89
2021/01/19 01:29:19;;;;;;;12.60;4.65;;;5.70;92.50;;;;;;6188491;23;20170;-88
2021/01/19 01:32:03;;;;;;;9.48;4.20;;;5.70;92.40;;;;;;6189350;23;20013;-88
2021/01/19 01:34:53;;;;;;;;;;;;;;;;;;;;;
2021/01/19 01:37:28;;;;;;;10.68;3.90;;;5.70;92.40;;;;;;6192577;23;20079;-88
2021/01/19 01:40:10;;;;;;;12.10;3.88;;;5.70;92.40;;;;;;6163363;23;20421;-89
2021/01/19 01:42:45;;;;;;;11.32;3.65;;;5.70;92.40;;;;;;6215381;23;20000;-87
2021/01/19 01:45:31;;;;;;;9.38;3.83;;;5.70;92.40;;;;;;6165733;23;20001;-87
2021/01/19 01:48:27;;;;;;;9.98;3.45;;;5.70;92.30;;;;;;6188821;23;20036;-89
2021/01/19 01:51:13;;;;;;;9.02;3.25;;;5.70;92.30;;;;;;6214661;23;19997;-88
2021/01/19 01:53:55;;;;;;;;;;;;;;;;;;;;;
2021/01/19 01:56:40;;;;;;;;;;;;;;;;;;;;;
2021/01/19 01:59:20;;;;;;;8.23;3.25;;;5.70;92.20;;;;;;6193463;23;20080;-88
2021/01/19 02:02:17;;;;;;;9.63;3.30;;;5.60;92.20;;;;;;6169317;23;20008;-88
2021/01/19 02:04:46;;;;;;;7.95;2.45;;;5.60;92.10;;;;;;6187726;23;20001;-88
2021/01/19 02:07:45;;;;;;;6.82;2.95;;;5.60;92.10;;;;;;6190757;23;20012;-91
2021/01/19 02:11:05;;;;;;;7.97;3.25;;;5.60;92.00;;;;;;6190751;23;20005;-88
2021/01/19 02:13:52;;;;;;;6.93;2.80;;;5.60;92.00;;;;;;6165453;23;20080;-88
2021/01/19 02:16:26;;;;;;;8.57;2.70;;;5.60;92.00;;;;;;6190026;23;20011;-88
2021/01/19 02:19:19;;;;;;;6.97;2.53;;;5.60;91.90;;;;;;6190387;23;20015;-89
2021/01/19 02:22:12;;;;;;;;;;;;;;;;;;;;;
2021/01/19 02:25:21;;;;;;;9.02;2.55;;;5.50;91.90;;;;;;6216347;23;20367;-87
2021/01/19 02:28:11;;;;;;;11.60;2.63;;;5.50;91.90;;;;;;6190663;23;20012;-88
2021/01/19 02:31:03;;;;;;;7.53;2.83;;;5.50;91.90;;;;;;6215458;23;20004;-89
2021/01/19 02:33:37;;;;;;;8.32;2.30;;;5.50;91.90;;;;;;6190152;23;20001;-88
2021/01/19 02:36:22;;;;;;;10.63;3.17;;;5.50;91.80;;;;;;6215724;23;20032;-89
2021/01/19 02:39:34;;;;;;;5.10;2.13;;;5.50;91.80;;;;;;6216508;23;20040;-90
2021/01/19 02:42:13;;;;;;;5.65;2.53;;;5.50;91.80;;;;;;6188001;23;20005;-88
2021/01/19 02:45:05;;;;;;;5.57;2.50;;;5.50;91.70;;;;;;6165423;23;20429;-88
2021/01/19 02:47:41;;;;;;;9.85;2.90;;;5.50;91.70;;;;;;6170293;23;20338;-88
2021/01/19 02:50:17;;;;;;;8.70;2.58;;;5.50;91.80;;;;;;6164357;23;20084;-88
2021/01/19 02:53:12;;;;;;;7.32;2.65;;;5.50;91.70;;;;;;6189617;23;20028;-88
2021/01/19 02:55:41;;;;;;;6.70;2.70;;;5.50;91.60;;;;;;6193102;23;20382;-87
2021/01/19 02:58:21;;;;;;;10.10;3.45;;;5.50;91.60;;;;;;6190899;23;20028;-88
2021/01/19 03:01:39;;;;;;;7.05;2.50;;;5.40;91.60;;;;;;6188936;23;20084;-87
2021/01/19 03:04:15;;;;;;;5.45;2.67;;;5.40;91.60;;;;;;6189973;23;20050;-89
2021/01/19 03:06:57;;;;;;;13.93;3.83;;;5.40;91.50;;;;;;6188604;23;20005;-87
2021/01/19 03:09:27;;;;;;;8.10;3.17;;;5.40;91.50;;;;;;6189830;23;20338;-87
2021/01/19 03:12:08;;;;;;;;;;;;;;;;;;;;;
2021/01/19 03:15:07;;;;;;;9.13;3.17;;;5.40;91.40;;;;;;6215876;23;20377;-88
2021/01/19 03:17:46;;;;;;;7.45;2.80;;;5.40;91.40;;;;;;6189208;23;20055;-90
2021/01/19 03:20:22;;;;;;;8.75;3.38;;;5.40;91.30;;;;;;6190205;23;20027;-88
2021/01/19 03:23:02;;;;;;;10.68;3.10;;;5.40;91.30;;;;;;6165502;23;20036;-88
2021/01/19 03:25:33;;;;;;;10.48;3.67;;;5.40;91.30;;;;;;6189547;23;20075;-88
2021/01/19 03:28:21;;;;;;;10.05;2.95;;;5.40;91.30;;;;;;6166068;23;20023;-88
2021/01/19 03:31:02;;;;;;;;;;;;;;;;;;;;;
2021/01/19 03:36:29;;;;;;;11.35;3.70;;;5.40;91.30;;;;;;6194409;23;20439;-89
2021/01/19 03:39:09;;;;;;;;;;;;;;;;;;;;;
2021/01/19 03:41:56;;;;;;;10.50;3.93;;;5.30;91.30;;;;;;6191490;23;20485;-88
2021/01/19 03:44:39;;;;;;;8.07;3.42;;;5.30;91.30;;;;;;6189582;23;20009;-89
2021/01/19 03:47:35;;;;;;;10.48;3.75;;;5.30;91.40;;;;;;6189566;23;20027;-87
2021/01/19 03:50:16;;;;;;;10.00;4.30;;;5.30;91.40;;;;;;6188597;23;20001;-89
2021/01/19 03:53:05;;;;;;;13.07;4.32;;;5.30;91.50;;;;;;6188966;23;20532;-88
2021/01/19 03:55:41;;;;;;;;;;;;;;;;;;;;;
2021/01/19 03:58:09;;;;;;;10.10;4.55;;;5.30;91.60;;;;;;6191734;23;20075;-88
2021/01/19 04:00:47;;;;;;;11.02;4.18;;;5.30;91.60;;;;;;6165292;23;20453;-88
2021/01/19 04:03:13;;;;;;;10.07;3.90;;;5.30;91.60;;;;;;6189570;23;20028;-88
2021/01/19 04:06:12;;;;;;;;;;;;;;;;;;;;;
2021/01/19 04:08:56;;;;;;;10.32;4.38;;;5.30;91.70;;;;;;6214461;23;20095;-88
2021/01/19 04:11:48;;;;;;;10.52;4.72;;;5.20;91.80;;;;;;6189482;23;20000;-88
2021/01/19 04:14:34;;;;;;;10.98;4.32;;;5.20;91.80;;;;;;6188909;23;20004;-88
2021/01/19 04:17:22;;;;;;;9.65;4.68;;;5.20;91.90;;;;;;6189877;23;20008;-89
2021/01/19 04:19:53;;;;;;;11.25;5.22;;;5.20;91.90;;;;;;6188320;23;20001;-89
2021/01/19 04:22:29;;;;;;;8.52;4.80;;;5.20;91.90;;;;;;6164286;23;20089;-90
2021/01/19 04:25:02;;;;;;;11.65;5.20;;;5.20;92.00;;;;;;6187670;23;20334;-87
2021/01/19 04:27:38;;;;;;;9.98;4.75;;;5.20;92.10;;;;;;6141604;23;20016;-89
2021/01/19 04:30:12;;;;;;;9.07;4.65;;;5.20;92.20;;;;;;6189038;23;20004;-89
2021/01/19 04:32:47;;;;;;;11.77;5.05;;;5.20;92.20;;;;;;6189069;23;20039;-88
2021/01/19 04:35:18;;;;;;;11.63;5.35;;;5.20;92.20;;;;;;6189145;23;19997;-89
2021/01/19 04:37:46;;;;;;;9.65;4.70;;;5.20;92.30;;;;;;6189629;23;20039;-89
2021/01/19 04:40:22;;;;;;;10.57;4.65;;;5.20;92.30;;;;;;6188568;23;20403;-88
2021/01/19 04:42:51;;;;;;;10.77;4.82;;;5.20;92.30;;;;;;6189697;23;20139;-89
2021/01/19 04:45:35;;;;;;;;;;;;;;;;;;;;;
2021/01/19 04:48:11;;;;;;;;;;;;;;;;;;;;;
2021/01/19 04:51:14;;;;;;;7.75;4.85;;;5.20;92.50;;;;;;6215050;23;20081;-89
2021/01/19 04:54:14;;;;;;;8.10;4.38;;;5.20;92.50;;;;;;6211698;23;20015;-90
2021/01/19 04:57:03;;;;;;;;;;;;;;;;;;;;;
2021/01/19 05:06:31;;;;;;;9.80;4.90;;;5.20;92.70;;;;;;6194305;23;20012;-90
2021/01/19 05:09:06;;;;;;;9.05;4.38;;;5.20;92.70;;;;;;6189590;23;20016;-91
2021/01/19 05:12:36;;;;;;;9.82;4.32;;;5.20;92.70;;;;;;6188639;23;20087;-90
2021/01/19 05:15:43;;;;;;;7.90;3.83;;;5.10;92.70;;;;;;6190050;23;20001;-90
2021/01/19 05:18:43;;;;;;;;;;;;;;;;;;;;;
2021/01/19 05:22:00;;;;;;;8.55;4.28;;;5.20;92.90;;;;;;6206209;23;20079;-90
2021/01/19 05:28:16;;;;;;;;;;;;;;;;;;;;;
2021/01/19 05:30:55;;;;;;;9.30;3.67;;;5.20;93.00;;;;;;6217103;23;20091;-90
2021/01/19 05:33:38;;;;;;;5.53;3.25;;;5.20;93.00;;;;;;6217629;23;20056;-92
2021/01/19 05:36:28;;;;;;;;;;;;;;;;;;;;;
2021/01/19 05:52:50;;;;;;;;;;;;;;;;;;;;;
2021/01/19 05:59:20;;;;;;;;;;;;;;;;;;;;;
2021/01/19 06:02:33;;;;;;;;;;;;;;;;;;;;;
2021/01/19 06:05:49;;;;;;;;;;;;;;;;;;;;;
2021/01/19 06:09:05;;;;;;;;;;;;;;;;;;;;;
2021/01/19 06:12:25;;;;;;;;;;;;;;;;;;;;;
2021/01/19 06:15:44;;;;;;;3.92;2.45;;;5.30;93.40;;;;;;6056543;23;20042;-93
2021/01/19 06:28:34;;;;;;;;;;;;;;;;;;;;;
2021/01/19 06:35:05;;;;;;;;;;;;;;;;;;;;;
2021/01/19 06:38:21;;;;;;;;;;;;;;;;;;;;;
2021/01/19 06:45:10;;;;;;;;;;;;;;;;;;;;;
2021/01/19 06:55:15;;;;;;;4.80;3.70;;;5.50;93.60;;;;;;6072280;23;20034;-94
2021/01/19 07:08:30;;;;;;;2.90;2.63;;;5.50;93.70;;;;;;5987210;24;20524;-95
2021/01/19 07:12:00;;;;;;;4.53;2.65;;;5.50;93.70;;;;;;5967549;24;20016;-93
2021/01/19 07:15:18;;;;;;;2.67;2.20;;;5.50;93.70;;;;;;6076340;23;20045;-94
2021/01/19 07:21:36;;;;;;;2.88;2.53;;;5.60;93.80;;;;;;6141370;23;20476;-93
2021/01/19 07:31:24;;;;;;;;;;;;;;;;;;;;;
2021/01/19 07:38:08;;;;;;;;;;;;;;;;;;;;;
2021/01/19 07:44:40;;;;;;;;;;;;;;;;;;;;;
2021/01/19 07:48:02;;;;;;;4.18;2.42;;;5.70;94.10;;;;;;6041040;23;20086;-92
2021/01/19 07:50:51;;;;;;;2.38;2.00;;;5.70;94.10;;;;;;6024082;23;20031;-92
2021/01/19 07:54:14;;;;;;;4.88;2.38;;;5.80;94.10;;;;;;6064425;23;20422;-92
2021/01/19 07:57:19;;;;;;;;;;;;;;;;;;;;;
2021/01/19 08:00:26;;;;;;;3.75;1.98;;;5.80;94.20;;;;;;6219335;23;20485;-92
2021/01/19 08:03:36;;;;;;;;;;;;;;;;;;;;;
2021/01/19 08:06:56;;;;;;;2.97;2.00;;;5.90;94.20;;;;;;6198981;23;20498;-92
2021/01/19 08:13:14;;;;;;;2.90;1.83;;;5.90;94.20;;;;;;6213714;23;20426;-94
2021/01/19 08:26:52;;;;;;;;;;;;;;;;;;;;;
2021/01/19 08:29:54;;;;;;;2.25;2.05;;;6.00;94.40;;;;;;6186902;23;20091;-93
2021/01/19 08:40:06;;;;;;;;;;;;;;;;;;;;;
2021/01/19 08:42:57;;;;;;;;;;;;;;;;;;;;;
2021/01/19 08:46:00;;;;;;;;;;;;;;;;;;;;;
2021/01/19 09:02:47;;;;;;;;;;;;;;;;;;;;;
2021/01/19 09:09:30;;;;;;;4.45;2.67;;;6.30;94.70;;;;;;6023572;23;20016;-94
2021/01/19 09:18:53;;;;;;;2.50;2.00;;;6.50;94.90;;;;;;6077361;23;20073;-93
2021/01/19 09:32:30;;;;;;;3.42;2.38;;;6.50;94.90;;;;;;6185572;23;20009;-95
2021/01/19 09:35:46;;;;;;;;;;;;;;;;;;;;;
2021/01/19 09:39:25;;;;;;;3.65;2.47;;;6.60;95.00;;;;;;6219122;23;20083;-94
2021/01/19 09:42:39;;;;;;;;;;;;;;;;;;;;;
2021/01/19 09:46:23;;;;;;;;;;;;;;;;;;;;;
2021/01/19 09:55:56;;;;;;;2.88;2.50;;;6.70;95.10;;;;;;6153378;23;20013;-95
2021/01/19 10:02:45;;;;;;;;;;;;;;;;;;;;;
2021/01/19 10:09:19;;;;;;;;;;;;;;;;;;;;;
2021/01/19 10:16:39;;;;;;;;;;;;;;;;;;;;;
2021/01/19 10:19:16;;;;;;;;;;;;;;;;;;;;;
2021/01/19 10:22:53;;;;;;;;;;;;;;;;;;;;;
2021/01/19 10:26:01;;;;;;;;;;;;;;;;;;;;;
2021/01/19 10:29:19;;;;;;;5.55;4.05;;;7.10;95.30;;;;;;6221283;23;20083;-96
2021/01/19 10:38:50;;;;;;;;;;;7.10;95.40;;;;;;6125096;23;20010;-92
2021/01/19 10:42:26;;;;;;;;;;;;;;;;;;;;;
2021/01/19 12:30:48;;;;;;;;;;;;;;;;;;;;;
2021/01/19 16:57:39;;;;;;;;;;;;;;;;;;;;;
2021/01/19 17:00:41;;;;;;;;;;;;;;;;;;;;;
2021/01/19 17:03:23;;;;;;;;;;;;;;;;;;;;;
2021/01/19 17:12:44;;;;;;;;;;;;;;;;;;;;;
2021/01/19 17:16:00;;;;;;;3.22;1.60;;;9.20;94.10;;;;;;6166610;23;20076;-91
2021/01/19 17:18:35;;;;;;;2.58;1.38;;;9.20;94.10;;;;;;6160519;23;20005;-91
2021/01/19 17:21:31;;;;;;;1.77;1.23;;;9.20;94.10;;;;;;6105779;23;20009;-91
2021/01/19 17:24:43;;;;;;;2.13;1.40;;;9.20;94.10;;;;;;6140746;23;20005;-91
2021/01/19 17:27:32;;;;;;;;;;;;;;;;;;;;;
2021/01/19 17:30:24;;;;;;;;;;;;;;;;;;;;;
2021/01/19 17:32:53;;;;;;;2.88;1.70;;;9.20;94.00;;;;;;6165636;23;20088;-91
2021/01/19 17:35:30;;;;;;;2.47;1.77;;;9.10;94.00;;;;;;6161273;23;20391;-92
2021/01/19 17:41:00;;;;;;;;;;;;;;;;;;;;;
2021/01/19 17:43:36;;;;;;;;;;;9.10;93.90;;;;;;6188248;23;20831;-93
2021/01/19 17:46:18;;;;;;;2.88;2.00;;;9.10;93.90;;;;;;6163396;23;19931;-93
2021/01/19 17:49:18;;;;;;;3.25;1.85;;;9.10;93.80;;;;;;6162850;23;20005;-92
2021/01/19 17:51:48;;;;;;;3.55;2.40;;;9.10;93.80;;;;;;6167446;23;20426;-92
2021/01/19 17:54:19;;;;;;;3.42;2.20;;;9.10;93.80;;;;;;6139461;23;20024;-94
2021/01/19 17:57:08;;;;;;;;;;;;;;;;;;;;;
2021/01/19 18:02:37;;;;;;;5.00;2.80;;;9.00;93.60;;;;;;6132508;23;20475;-92
2021/01/19 18:05:09;;;;;;;4.20;2.92;;;9.00;93.60;;;;;;6114744;23;20041;-92
2021/01/19 18:08:00;;;;;;;5.72;2.65;;;9.00;93.50;;;;;;6115655;23;20060;-92
2021/01/19 18:11:06;;;;;;;;;;;;;;;;;;;;;
2021/01/19 18:14:24;;;;;;;5.07;3.28;;;9.00;93.40;;;;;;6186345;23;20025;-93
2021/01/19 18:20:00;;;;;;;;;;;;;;;;;;;;;
2021/01/19 18:23:05;;;;;;;;;;;;;;;;;;;;;
2021/01/19 18:26:00;;;;;;;6.65;5.95;;;9.00;93.40;;;;;;6168303;23;20080;-93
2021/01/19 18:29:25;;;;;;;;;;;;;;;;;;;;;
2021/01/19 18:32:19;;;;;;;6.78;5.93;;;9.00;93.40;;;;;;6186170;23;20096;-92
2021/01/19 18:35:01;;;;;;;8.93;7.75;;;9.00;93.40;;;;;;6163674;23;20001;-93
2021/01/19 18:37:55;;;;;;;;;;;;;;;;;;;;;
2021/01/19 18:40:48;;;;;;;7.25;6.55;;;9.00;93.30;;;;;;6189382;23;20093;-93
2021/01/19 18:43:59;;;;;;;;;;;;;;;;;;;;;
2021/01/19 18:50:20;;;;;;;;;;;;;;;;;;;;;
2021/01/19 18:53:12;;;;;;;8.88;7.43;;;8.80;93.40;;;;;;6189974;23;20084;-91
2021/01/19 18:56:31;;;;;;;;;;;;;;;;;;;;;
2021/01/19 18:59:04;;;;;;;8.35;7.10;;;8.80;93.40;;;;;;6190051;23;20084;-90
2021/01/19 19:01:43;;;;;;;7.22;6.15;;;8.80;93.30;;;;;;6164189;23;20472;-92
2021/01/19 19:04:46;;;;;;;7.50;6.65;;;8.80;93.40;;;;;;6117285;23;20013;-92
2021/01/19 19:10:59;;;;;;;8.00;6.55;;;8.80;93.20;;;;;;6182244;23;19900;-92
2021/01/19 19:13:32;;;;;;;8.77;6.88;;;8.70;93.20;;;;;;6188426;23;20005;-90
2021/01/19 19:16:08;;;;;;;7.88;6.80;;;8.70;93.20;;;;;;6139006;23;20009;-94
2021/01/19 19:19:03;;;;;;;8.07;6.68;;;8.60;93.20;;;;;;6163291;23;20001;-92
2021/01/19 19:21:29;;;;;;;8.10;6.35;;;8.70;93.30;;;;;;6154345;23;20001;-92
2021/01/19 19:24:18;;;;;;;7.20;6.22;;;8.70;93.30;;;;;;6164013;23;20015;-94
2021/01/19 19:27:46;;;;;;;8.52;6.82;;;8.70;93.30;;;;;;6148236;23;20442;-94
2021/01/19 19:30:58;;;;;;;;;;;;;;;;;;;;;
2021/01/19 19:33:52;;;;;;;8.45;7.60;;;8.60;93.40;;;;;;6170039;23;20087;-92
2021/01/19 19:39:36;;;;;;;11.68;9.55;;;8.50;93.40;;;;;;6182018;23;20005;-93
2021/01/19 19:42:29;;;;;;;10.73;9.15;;;8.50;93.70;;;;;;6160743;23;20020;-91
2021/01/19 19:45:12;;;;;;;10.80;9.70;;;8.50;93.50;;;;;;6152945;23;20013;-93
2021/01/19 19:47:51;;;;;;;;;;;;;;;;;;;;;
2021/01/19 19:50:59;;;;;;;12.73;9.75;;;8.40;93.50;;;;;;6167402;23;20029;-93
2021/01/19 19:53:37;;;;;;;10.95;9.85;;;8.30;93.50;;;;;;6141446;23;20016;-92
2021/01/19 19:56:17;;;;;;;11.77;9.77;;;8.30;93.50;;;;;;6188935;23;20014;-94
2021/01/19 19:58:59;;;;;;;;;;;;;;;;;;;;;
2021/01/19 20:01:30;;;;;;;14.45;10.35;;;8.30;93.50;;;;;;6167471;23;20260;-93
2021/01/19 20:07:09;;;;;;;13.57;9.77;;;8.30;93.40;;;;;;6161014;23;20017;-90
2021/01/19 20:09:45;;;;;;;13.23;8.40;;;8.20;93.40;;;;;;6189013;23;19998;-92
2021/01/19 20:12:40;;;;;;;11.38;8.85;;;8.20;93.30;;;;;;6139836;23;20111;-91
2021/01/19 20:15:20;;;;;;;;;;;;;;;;;;;;;
2021/01/19 20:18:31;;;;;;;10.60;8.82;;;8.20;93.30;;;;;;6188737;23;20073;-90
2021/01/19 20:21:09;;;;;;;12.33;8.10;;;8.20;93.30;;;;;;6187412;23;20358;-93
2021/01/19 20:23:53;;;;;;;12.05;8.88;;;8.20;93.30;;;;;;6138232;23;20040;-95
2021/01/19 20:26:33;;;;;;;11.35;8.70;;;8.20;93.20;;;;;;6164035;23;20092;-93
2021/01/19 20:29:27;;;;;;;13.52;8.63;;;8.20;93.20;;;;;;6117096;23;20009;-92
2021/01/19 20:32:05;;;;;;;13.13;8.75;;;8.10;93.10;;;;;;6163751;23;20096;-95
2021/01/19 20:34:34;;;;;;;12.20;8.85;;;8.10;93.10;;;;;;6162989;23;20040;-92
2021/01/19 20:37:37;;;;;;;;;;;;;;;;;;;;;
2021/01/19 20:40:14;;;;;;;12.40;9.07;;;8.00;93.00;;;;;;6189891;23;20505;-91
2021/01/19 20:43:14;;;;;;;;;;;;;;;;;;;;;
2021/01/19 20:46:11;;;;;;;16.75;10.73;;;8.00;93.10;;;;;;6190100;23;20069;-94
2021/01/19 20:49:13;;;;;;;;;;;;;;;;;;;;;
2021/01/19 20:54:55;;;;;;;16.67;10.77;;;7.90;93.10;;;;;;6166650;23;20036;-93
2021/01/19 20:57:38;;;;;;;;;;;;;;;;;;;;;
2021/01/19 21:00:33;;;;;;;17.23;12.18;;;7.90;93.10;;;;;;6163533;23;20089;-91
2021/01/19 21:03:58;;;;;;;16.95;12.68;;;7.80;93.10;;;;;;6158741;23;20036;-93
2021/01/19 21:06:27;;;;;;;13.93;10.90;;;7.80;93.10;;;;;;6177302;23;20009;-94
2021/01/19 21:09:50;;;;;;;;;;;;;;;;;;;;;
2021/01/19 21:13:22;;;;;;;16.13;11.70;;;7.80;93.20;;;;;;6187751;23;20116;-91
2021/01/19 21:16:25;;;;;;;19.73;12.50;;;7.70;93.20;;;;;;6039619;23;20011;-92
2021/01/19 21:19:51;;;;;;;;;;;;;;;;;;;;;
2021/01/19 21:22:52;;;;;;;13.88;10.32;;;7.60;93.20;;;;;;6180473;23;20017;-93
2021/01/19 21:25:24;;;;;;;14.77;10.40;;;7.60;93.20;;;;;;6185478;23;20423;-90
2021/01/19 21:28:13;;;;;;;;;;;;;;;;;;;;;
2021/01/19 21:31:05;;;;;;;;;;;;;;;;;;;;;
2021/01/19 21:33:50;;;;;;;;;;;;;;;;;;;;;
2021/01/19 21:36:48;;;;;;;13.13;9.27;;;7.50;93.00;;;;;;6187242;23;20084;-90
2021/01/19 21:39:58;;;;;;;;;;;;;;;;;;;;;
2021/01/19 21:42:37;;;;;;;12.73;8.80;;;7.40;93.00;;;;;;6164475;23;20084;-93
2021/01/19 21:48:41;;;;;;;;;;;;;;;;;;;;;
2021/01/19 21:51:10;;;;;;;9.65;7.72;;;7.40;93.00;;;;;;6168050;23;20510;-90
2021/01/19 21:53:47;;;;;;;;;;;;;;;;;;;;;
2021/01/19 21:56:20;;;;;;;12.50;8.25;;;7.40;92.90;;;;;;6185641;23;20080;-90
2021/01/19 21:58:46;;;;;;;10.25;8.10;;;7.40;92.90;;;;;;6135685;23;20005;-91
2021/01/19 22:01:28;;;;;;;10.70;8.07;;;7.40;92.90;;;;;;6182923;23;20069;-91
2021/01/19 22:04:27;;;;;;;;;;;;;;;;;;;;;
2021/01/19 22:07:05;;;;;;;12.20;9.18;;;7.40;92.80;;;;;;6186966;23;20075;-93
2021/01/19 22:10:03;;;;;;;12.65;9.40;;;7.30;92.80;;;;;;6157969;23;20009;-90
2021/01/19 22:16:31;;;;;;;11.68;8.93;;;7.30;92.80;;;;;;6184953;23;20013;-91
2021/01/19 22:19:24;;;;;;;;;;;;;;;;;;;;;
2021/01/19 22:25:21;;;;;;;15.43;10.43;;;7.30;92.80;;;;;;6136972;23;20045;-90
2021/01/19 22:28:32;;;;;;;;;;;;;;;;;;;;;
2021/01/19 22:31:06;;;;;;;13.68;10.18;;;7.30;92.80;;;;;;6168965;23;20517;-91
2021/01/19 22:37:12;;;;;;;;;;;;;;;;;;;;;
2021/01/19 22:40:07;;;;;;;13.90;10.52;;;7.20;92.80;;;;;;6143917;23;20536;-91
2021/01/19 22:42:41;;;;;;;12.90;9.35;;;7.20;92.80;;;;;;6184700;23;20016;-91
2021/01/19 22:45:25;;;;;;;14.20;10.13;;;7.20;92.80;;;;;;6161553;23;20032;-92
2021/01/19 22:48:36;;;;;;;;;;;;;;;;;;;;;
2021/01/19 22:54:28;;;;;;;17.38;10.52;;;7.20;92.80;;;;;;6095187;23;20017;-89
2021/01/19 22:57:06;;;;;;;14.75;10.65;;;7.30;92.80;;;;;;6138276;23;20005;-92
2021/01/19 22:59:59;;;;;;;;;;;;;;;;;;;;;
2021/01/19 23:02:48;;;;;;;15.27;10.90;;;7.20;92.70;;;;;;6161924;23;20100;-93
2021/01/19 23:06:10;;;;;;;13.68;10.18;;;7.20;92.70;;;;;;6139737;23;20379;-90
2021/01/19 23:08:53;;;;;;;;;;;;;;;;;;;;;
2021/01/19 23:11:52;;;;;;;;;;;;;;;;;;;;;
2021/01/19 23:14:49;;;;;;;;;;;;;;;;;;;;;
2021/01/19 23:17:22;;;;;;;12.15;9.88;;;7.20;92.60;;;;;;6163757;23;20053;-90
2021/01/19 23:22:59;;;;;;;14.48;10.32;;;7.20;92.60;;;;;;6176342;23;20340;-89
2021/01/19 23:25:45;;;;;;;14.15;10.25;;;7.30;92.60;;;;;;6140068;23;20068;-91
2021/01/19 23:28:31;;;;;;;;;;;;;;;;;;;;;
2021/01/19 23:31:09;;;;;;;13.80;9.20;;;7.30;92.60;;;;;;6163936;23;20077;-90
2021/01/19 23:33:54;;;;;;;13.65;9.35;;;7.30;92.50;;;;;;6160962;23;20312;-92
2021/01/19 23:36:37;;;;;;;;;;;;;;;;;;;;;
2021/01/19 23:39:22;;;;;;;;;;;;;;;;;;;;;
2021/01/19 23:42:41;;;;;;;12.98;9.20;;;7.20;92.40;;;;;;6190785;23;20031;-90
2021/01/19 23:45:10;;;;;;;13.00;9.73;;;7.20;92.40;;;;;;6166624;23;20040;-90
2021/01/19 23:47:49;;;;;;;;;;;;;;;;;;;;;
2021/01/19 23:50:45;;;;;;;;;;;;;;;;;;;;;
2021/01/19 23:53:39;;;;;;;14.05;9.15;;;7.20;92.40;;;;;;6162820;23;20088;-92
2021/01/19 23:56:50;;;;;;;13.95;9.23;;;7.20;92.40;;;;;;6152517;23;20080;-90
